Time;durP1;ratioP1;P1;durP2;ratioP2;P2;SDS_P1;SDS_P2;PMS_P1;PMS_P2;Temp;Humidity;BMP_temperature;BMP_pressure;BME280_temperature;BME280_humidity;BME280_pressure;Samples;Min_cycle;Max_cycle;Signal;HPM_P1;HPM_P2
2021/06/25 00:01:47;;;;;;;10.40;6.33;;;;;;;20.69;78.17;100400.88;124825;1096;103656;-83
2021/06/25 00:04:14;;;;;;;12.98;6.08;;;;;;;20.63;78.38;100401.25;124944;1096;114869;-82
2021/06/25 00:06:42;;;;;;;10.38;5.58;;;;;;;20.60;78.26;100402.33;124775;1096;102873;-81
2021/06/25 00:09:11;;;;;;;12.57;5.77;;;;;;;20.60;78.60;100396.92;124734;1096;103087;-80
2021/06/25 00:11:38;;;;;;;8.58;5.75;;;;;;;20.58;78.39;100395.29;124700;1096;114858;-81
2021/06/25 00:14:07;;;;;;;7.43;5.23;;;;;;;20.53;78.81;100391.06;124764;1096;103023;-81
2021/06/25 00:16:34;;;;;;;7.23;5.07;;;;;;;20.44;79.22;100388.98;124724;1096;114340;-82
2021/06/25 00:19:02;;;;;;;12.40;5.33;;;;;;;20.34;79.62;100390.56;124681;1096;102975;-82
2021/06/25 00:21:29;;;;;;;9.85;6.90;;;;;;;20.37;79.58;100380.41;124414;1095;103460;-81
2021/06/25 00:23:57;;;;;;;8.37;5.57;;;;;;;20.38;79.93;100382.16;124546;1094;114567;-81
2021/06/25 00:26:24;;;;;;;12.70;5.87;;;;;;;20.45;79.28;100358.26;124812;1096;103109;-82
2021/06/25 00:28:52;;;;;;;8.33;5.93;;;;;;;20.52;79.57;100364.12;124746;1096;115104;-82
2021/06/25 00:31:19;;;;;;;7.20;5.80;;;;;;;20.57;79.34;100361.11;124611;1096;103367;-83
2021/06/25 00:34:01;;;;;;;9.73;5.57;;;;;;;20.51;79.14;100363.27;124706;1096;115066;-82
2021/06/25 00:36:42;;;;;;;7.98;6.00;;;;;;;20.42;79.65;100355.77;124378;1098;102956;-81
2021/06/25 00:39:23;;;;;;;7.07;4.40;;;;;;;20.31;80.88;100356.51;124204;1097;103182;-83
2021/06/25 00:41:51;;;;;;;6.17;3.83;;;;;;;20.19;80.91;100349.20;124224;1098;114564;-81
2021/06/25 00:44:20;;;;;;;8.13;5.23;;;;;;;20.11;81.32;100346.16;124738;1098;103111;-81
2021/06/25 00:46:48;;;;;;;6.63;5.10;;;;;;;20.04;81.99;100334.89;124326;1098;114748;-82
2021/06/25 00:49:16;;;;;;;6.33;4.63;;;;;;;19.96;82.43;100321.02;124291;1100;104125;-82
2021/06/25 00:51:57;;;;;;;7.58;4.95;;;;;;;19.92;82.76;100292.47;124283;1098;103135;-82
2021/06/25 00:54:25;;;;;;;13.20;5.60;;;;;;;19.90;83.10;100284.47;124174;1098;115828;-81
2021/06/25 00:57:06;;;;;;;12.67;5.27;;;;;;;19.86;82.67;100262.18;124395;1098;103764;-82
2021/06/25 00:59:34;;;;;;;6.88;4.35;;;;;;;19.83;83.03;100246.18;124345;1098;114597;-82
2021/06/25 01:02:02;;;;;;;12.55;6.65;;;;;;;19.79;83.11;100227.52;124391;1100;103201;-81
2021/06/25 01:04:29;;;;;;;8.33;5.37;;;;;;;19.81;82.97;100218.38;124299;1099;115013;-84
2021/06/25 01:06:57;;;;;;;7.03;4.97;;;;;;;19.82;82.94;100198.50;124392;1098;103281;-82
2021/06/25 01:09:25;;;;;;;7.53;5.78;;;;;;;19.80;83.04;100172.52;124364;1100;103193;-81
2021/06/25 01:11:52;;;;;;;7.67;5.30;;;;;;;19.82;83.30;100149.86;124210;1100;114329;-81
2021/06/25 01:14:20;;;;;;;6.83;5.33;;;;;;;19.82;83.76;100114.73;124448;1096;103224;-82
2021/06/25 01:16:48;;;;;;;8.13;5.83;;;;;;;19.80;83.26;100086.89;124307;1096;116476;-81
2021/06/25 01:19:15;;;;;;;7.70;5.50;;;;;;;19.89;83.35;100066.52;124497;1095;103034;-81
2021/06/25 01:21:45;;;;;;;6.80;4.95;;;;;;;19.97;82.97;100058.72;124401;1096;103635;-81
2021/06/25 01:24:13;;;;;;;6.33;5.20;;;;;;;19.99;82.98;100028.87;124824;1095;114393;-81
2021/06/25 01:26:40;;;;;;;8.93;5.70;;;;;;;19.94;83.05;99982.38;124498;1096;103020;-81
2021/06/25 01:29:08;;;;;;;8.87;5.80;;;;;;;19.92;82.80;99955.47;124673;1096;114194;-81
2021/06/25 01:31:35;;;;;;;10.58;6.63;;;;;;;20.01;82.64;99943.98;124414;1096;103003;-81
2021/06/25 01:34:05;;;;;;;7.40;5.30;;;;;;;20.16;82.01;99946.55;124843;1096;103156;-82
2021/06/25 01:36:46;;;;;;;7.83;7.00;;;;;;;20.35;81.12;99970.38;124345;1096;114186;-82
2021/06/25 01:39:15;;;;;;;10.25;5.50;;;;;;;20.46;80.61;99977.69;124824;1095;103003;-81
2021/06/25 01:41:42;;;;;;;8.37;5.60;;;;;;;20.55;80.53;99987.82;124575;1096;116570;-81
2021/06/25 01:44:10;;;;;;;10.07;4.80;;;;;;;20.50;80.05;100017.94;124756;1096;103163;-81
2021/06/25 01:46:51;;;;;;;6.80;5.00;;;;;;;20.51;79.95;100079.19;124473;1096;115083;-81
2021/06/25 01:49:19;;;;;;;11.30;6.10;;;;;;;20.53;80.21;100119.66;124395;1096;103062;-80
2021/06/25 01:51:49;;;;;;;9.50;5.57;;;;;;;20.54;80.07;100156.56;124810;1096;103073;-80
2021/06/25 01:54:16;;;;;;;9.53;5.95;;;;;;;20.52;80.08;100193.67;124608;1096;114688;-80
2021/06/25 01:56:44;;;;;;;10.90;5.43;;;;;;;20.49;79.86;100216.39;124474;1096;103082;-81
2021/06/25 01:59:12;;;;;;;8.20;6.33;;;;;;;20.47;80.21;100223.77;124687;1096;114781;-82
2021/06/25 02:01:39;;;;;;;10.95;5.68;;;;;;;20.47;80.51;100233.70;124512;1095;103002;-82
2021/06/25 02:04:08;;;;;;;13.23;6.30;;;;;;;20.59;80.47;100230.13;125834;1096;103118;-82
2021/06/25 02:06:35;;;;;;;7.97;5.77;;;;;;;20.66;79.91;100208.91;124340;1096;114845;-81
2021/06/25 02:09:03;;;;;;;11.90;5.90;;;;;;;20.73;79.77;100193.12;124306;1095;103003;-81
2021/06/25 02:11:30;;;;;;;8.88;5.85;;;;;;;20.79;78.96;100193.57;124443;1096;114743;-81
2021/06/25 02:14:12;;;;;;;8.33;5.48;;;;;;;20.89;79.16;100201.88;124725;1096;103105;-81
2021/06/25 02:16:53;;;;;;;8.40;5.08;;;;;;;20.99;78.51;100207.47;126345;1100;115871;-81
2021/06/25 02:19:35;;;;;;;6.53;5.87;;;;;;;21.07;78.03;100226.73;124842;1100;103065;-80
2021/06/25 02:22:17;;;;;;;15.73;6.23;;;;;;;21.15;77.83;100229.77;123661;1101;103086;-80
2021/06/25 02:24:45;;;;;;;9.57;6.17;;;;;;;21.17;77.10;100229.64;124887;1101;116227;-80
2021/06/25 02:27:12;;;;;;;12.03;6.53;;;;;;;21.18;77.08;100240.36;123769;1102;103301;-79
2021/06/25 02:29:53;;;;;;;7.53;6.13;;;;;;;21.12;77.44;100246.22;123298;1101;114807;-80
2021/06/25 02:32:21;;;;;;;11.53;5.80;;;;;;;21.07;77.73;100240.27;123369;1101;103409;-80
2021/06/25 02:34:48;;;;;;;7.77;5.53;;;;;;;21.01;78.26;100238.02;123483;1103;117523;-80
2021/06/25 02:37:29;;;;;;;8.10;5.60;;;;;;;20.95;78.08;100238.45;123877;1102;103138;-80
2021/06/25 02:39:57;;;;;;;7.87;6.17;;;;;;;20.87;78.14;100242.59;126328;1102;101929;-78
2021/06/25 02:42:38;;;;;;;9.73;5.13;;;;;;;20.98;78.05;100233.70;124541;1100;114359;-80
2021/06/25 02:45:06;;;;;;;9.37;5.37;;;;;;;21.02;77.71;100232.49;123426;1100;103242;-80
2021/06/25 02:47:37;;;;;;;7.45;5.78;;;;;;;21.05;78.01;100244.95;124432;1100;114578;-79
2021/06/25 02:50:07;;;;;;;9.73;6.75;;;;;;;20.92;77.91;100231.42;126306;1100;101131;-80
2021/06/25 02:52:37;;;;;;;8.98;6.58;;;;;;;20.92;78.36;100234.13;125300;1100;115891;-80
2021/06/25 02:55:05;;;;;;;13.00;5.83;;;;;;;20.98;78.22;100230.98;123706;1100;103217;-80
2021/06/25 02:57:33;;;;;;;8.60;7.17;;;;;;;21.09;78.04;100234.77;123976;1100;103156;-80
2021/06/25 03:00:00;;;;;;;7.93;5.83;;;;;;;21.21;77.72;100236.56;124038;1096;114911;-79
2021/06/25 03:02:28;;;;;;;7.73;6.03;;;;;;;21.34;76.95;100239.23;124157;1096;103288;-79
2021/06/25 03:04:55;;;;;;;8.23;5.83;;;;;;;21.42;77.23;100236.81;124398;1096;114769;-79
2021/06/25 03:07:23;;;;;;;8.07;6.53;;;;;;;21.45;76.72;100241.14;124559;1096;103022;-80
2021/06/25 03:09:50;;;;;;;11.23;7.20;;;;;;;21.51;76.79;100237.95;124658;1096;103019;-80
2021/06/25 03:12:17;;;;;;;8.23;6.50;;;;;;;21.59;76.43;100234.70;124401;1095;116287;-80
2021/06/25 03:14:45;;;;;;;9.58;6.28;;;;;;;21.61;76.07;100232.77;124578;1096;103281;-80
2021/06/25 03:17:13;;;;;;;11.23;6.80;;;;;;;21.52;76.85;100242.41;124535;1096;114645;-79
2021/06/25 03:19:40;;;;;;;8.67;6.10;;;;;;;21.48;76.65;100255.30;124543;1096;102994;-80
2021/06/25 03:22:08;;;;;;;7.85;6.25;;;;;;;21.37;77.61;100258.81;124725;1096;103050;-80
2021/06/25 03:24:35;;;;;;;8.50;6.13;;;;;;;21.31;77.52;100269.24;124540;1096;114425;-79
2021/06/25 03:27:03;;;;;;;8.83;6.25;;;;;;;21.33;77.85;100276.28;124620;1096;103014;-79
2021/06/25 03:29:30;;;;;;;7.20;6.50;;;;;;;21.33;78.29;100268.16;124546;1096;114816;-80
2021/06/25 03:31:58;;;;;;;10.78;7.68;;;;;;;21.38;78.17;100284.94;124728;1096;103191;-79
2021/06/25 03:34:26;;;;;;;9.77;7.10;;;;;;;21.47;77.90;100280.70;124550;1095;115186;-79
2021/06/25 03:36:53;;;;;;;8.58;6.10;;;;;;;21.43;77.68;100289.15;124686;1096;103865;-79
2021/06/25 03:39:21;;;;;;;11.05;7.75;;;;;;;21.45;78.17;100290.77;124655;1096;103017;-78
2021/06/25 03:41:48;;;;;;;16.35;8.20;;;;;;;21.43;77.76;100291.86;124573;1096;114999;-79
2021/06/25 03:44:16;;;;;;;12.68;7.38;;;;;;;21.42;77.90;100290.12;124283;1096;103065;-78
2021/06/25 03:46:58;;;;;;;12.00;7.47;;;;;;;21.37;78.45;100295.89;124178;1096;116404;-79
2021/06/25 03:49:26;;;;;;;9.33;7.00;;;;;;;21.34;78.68;100282.58;124228;1096;103128;-78
2021/06/25 03:51:53;;;;;;;11.20;7.97;;;;;;;21.30;78.46;100290.06;124559;1095;103501;-78
2021/06/25 03:54:21;;;;;;;8.33;6.67;;;;;;;21.18;78.93;100302.65;124155;1096;114725;-79
2021/06/25 03:57:02;;;;;;;9.53;7.67;;;;;;;21.01;79.25;100298.44;124341;1096;103355;-79
2021/06/25 03:59:30;;;;;;;6.97;5.10;;;;;;;20.91;80.11;100297.36;124413;1096;114582;-80
2021/06/25 04:01:57;;;;;;;9.75;6.83;;;;;;;20.74;80.22;100278.75;124739;1096;103075;-80
2021/06/25 04:04:25;;;;;;;9.47;6.73;;;;;;;20.70;80.78;100278.98;124332;1096;114685;-79
2021/06/25 04:06:53;;;;;;;8.35;7.15;;;;;;;20.68;80.07;100269.20;124269;1096;103113;-80
2021/06/25 04:09:20;;;;;;;8.75;7.68;;;;;;;20.68;80.20;100274.63;124214;1096;103176;-79
2021/06/25 04:12:02;;;;;;;11.77;8.17;;;;;;;20.75;80.34;100254.28;124411;1096;114499;-79
2021/06/25 04:14:31;;;;;;;8.70;7.27;;;;;;;20.87;80.11;100230.89;124128;1095;103413;-79
2021/06/25 04:16:58;;;;;;;13.00;8.03;;;;;;;21.03;79.55;100209.86;124425;1095;116303;-78
2021/06/25 04:19:26;;;;;;;10.58;7.25;;;;;;;21.10;79.44;100204.86;124241;1094;103102;-79
2021/06/25 04:21:53;;;;;;;8.77;7.87;;;;;;;21.05;79.02;100196.20;124554;1095;103122;-79
2021/06/25 04:24:22;;;;;;;12.63;7.57;;;;;;;21.06;79.47;100192.53;124186;1095;114545;-78
2021/06/25 04:26:49;;;;;;;10.07;7.70;;;;;;;21.16;79.56;100180.02;124266;1096;103058;-78
2021/06/25 04:29:32;;;;;;;11.15;6.83;;;;;;;21.26;78.45;100171.20;124289;1096;116027;-79
2021/06/25 04:32:00;;;;;;;10.80;7.37;;;;;;;21.23;78.62;100180.41;124305;1096;103166;-79
2021/06/25 04:34:28;;;;;;;9.68;7.90;;;;;;;21.27;78.94;100197.31;127486;1095;115139;-78
2021/06/25 04:36:57;;;;;;;9.60;7.97;;;;;;;21.30;78.51;100197.08;127309;1095;103598;-78
2021/06/25 04:39:39;;;;;;;11.20;8.47;;;;;;;21.40;78.39;100181.87;127276;1096;100814;-78
2021/06/25 04:42:09;;;;;;;12.48;7.93;;;;;;;21.34;78.40;100182.35;125288;1096;115628;-79
2021/06/25 04:44:37;;;;;;;10.70;8.40;;;;;;;21.38;78.31;100195.53;124703;1096;103559;-78
2021/06/25 04:47:06;;;;;;;9.10;6.77;;;;;;;21.42;77.81;100188.05;124723;1096;114910;-78
2021/06/25 04:49:37;;;;;;;10.30;7.43;;;;;;;21.41;78.53;100188.17;124532;1095;103186;-79
2021/06/25 04:52:06;;;;;;;9.70;8.20;;;;;;;21.42;77.70;100198.89;124385;1096;103026;-79
2021/06/25 04:54:47;;;;;;;13.07;8.73;;;;;;;21.44;78.15;100196.91;127476;1095;115223;-79
2021/06/25 04:57:14;;;;;;;9.48;8.03;;;;;;;21.64;77.95;100187.30;127594;1095;101102;-77
2021/06/25 04:59:42;;;;;;;14.40;8.90;;;;;;;21.78;77.68;100166.41;127490;1095;114403;-78
2021/06/25 05:02:23;;;;;;;10.00;8.60;;;;;;;21.88;76.19;100143.02;127606;1095;100744;-78
2021/06/25 05:04:50;;;;;;;11.10;8.93;;;;;;;21.92;75.77;100144.51;127491;1096;114950;-78
2021/06/25 05:07:18;;;;;;;11.97;9.47;;;;;;;21.94;76.57;100172.38;126662;1096;102994;-78
2021/06/25 05:09:45;;;;;;;12.87;9.63;;;;;;;21.82;76.96;100205.84;124354;1096;103066;-79
2021/06/25 05:12:13;;;;;;;12.90;9.03;;;;;;;21.83;77.07;100219.31;124491;1096;114905;-78
2021/06/25 05:14:54;;;;;;;14.80;9.00;;;;;;;21.95;76.54;100222.92;124388;1096;103131;-79
2021/06/25 05:17:21;;;;;;;9.47;8.13;;;;;;;21.99;76.53;100224.41;123897;1094;116162;-79
2021/06/25 05:19:49;;;;;;;15.17;12.10;;;;;;;22.00;76.44;100230.69;124278;1096;103020;-79
2021/06/25 05:22:31;;;;;;;17.55;11.15;;;;;;;22.02;76.24;100245.02;123673;1099;115078;-80
2021/06/25 05:25:00;;;;;;;14.30;10.67;;;;;;;21.96;76.25;100250.89;124017;1098;103216;-80
2021/06/25 05:27:27;;;;;;;15.68;10.38;;;;;;;22.01;76.56;100262.25;124153;1100;103303;-80
2021/06/25 05:29:54;;;;;;;12.37;9.90;;;;;;;22.09;76.43;100257.10;123996;1099;115110;-80
2021/06/25 05:32:22;;;;;;;15.05;10.60;;;;;;;22.07;76.19;100242.78;124145;1097;103028;-79
2021/06/25 05:35:04;;;;;;;16.00;11.67;;;;;;;22.15;76.68;100228.63;123997;1099;115209;-80
2021/06/25 05:37:32;;;;;;;15.40;12.78;;;;;;;22.25;76.58;100239.66;127028;1100;101639;-78
2021/06/25 05:40:13;;;;;;;30.60;16.35;;;;;;;22.24;75.63;100238.77;127150;1100;102209;-81
2021/06/25 05:42:41;;;;;;;23.93;15.60;;;;;;;22.19;75.79;100249.99;127110;1099;114905;-79
2021/06/25 05:45:09;;;;;;;20.13;17.37;;;;;;;22.22;76.13;100259.73;127203;1098;101389;-79
2021/06/25 05:47:37;;;;;;;27.93;19.65;;;;;;;22.24;75.75;100262.33;125578;1100;115057;-79
2021/06/25 05:50:04;;;;;;;24.15;20.30;;;;;;;22.24;75.61;100270.47;124191;1099;103042;-79
2021/06/25 05:52:32;;;;;;;27.95;22.80;;;;;;;22.25;75.83;100262.20;124078;1100;116229;-80
2021/06/25 05:54:59;;;;;;;28.70;23.80;;;;;;;22.28;75.26;100270.09;124113;1098;103453;-79
2021/06/25 05:57:28;;;;;;;29.23;24.73;;;;;;;22.25;75.03;100269.49;125932;1100;102898;-80
2021/06/25 05:59:55;;;;;;;32.30;26.47;;;;;;;22.24;75.31;100275.89;124024;1097;114978;-80
2021/06/25 06:02:23;;;;;;;31.43;24.65;;;;;;;22.30;75.66;100256.41;124545;1096;102997;-80
2021/06/25 06:04:50;;;;;;;28.35;24.60;;;;;;;22.35;75.43;100262.38;124483;1095;115178;-79
2021/06/25 06:07:18;;;;;;;35.90;23.70;;;;;;;22.28;75.20;100252.97;124543;1096;103447;-80
2021/06/25 06:09:45;;;;;;;28.80;23.93;;;;;;;22.25;75.24;100253.21;124589;1096;103005;-80
2021/06/25 06:12:13;;;;;;;31.08;24.20;;;;;;;22.24;75.43;100259.61;124229;1096;116534;-79
2021/06/25 06:14:40;;;;;;;27.30;24.10;;;;;;;22.24;75.14;100257.76;124690;1096;103156;-80
2021/06/25 06:17:22;;;;;;;30.03;24.25;;;;;;;22.33;75.11;100239.91;124480;1096;114986;-80
2021/06/25 06:19:54;;;;;;;28.80;22.13;;;;;;;22.38;75.36;100240.45;124511;1096;102959;-80
2021/06/25 06:36:22;;;;;;;33.33;27.43;;;;;;;22.56;73.74;100269.83;124417;1095;115040;-81
2021/06/25 06:38:55;;;;;;;40.85;28.48;;;;;;;22.65;73.48;100269.11;127266;1096;101660;-78
2021/06/25 06:41:24;;;;;;;31.13;27.40;;;;;;;22.77;74.23;100278.98;125592;1096;115305;-80
2021/06/25 06:43:52;;;;;;;34.20;27.00;;;;;;;22.80;73.72;100269.73;124354;1096;103076;-81
2021/06/25 06:46:20;;;;;;;34.88;27.85;;;;;;;22.80;72.71;100270.58;124653;1096;103330;-80
2021/06/25 06:49:01;;;;;;;39.45;29.18;;;;;;;22.81;72.38;100275.03;124373;1096;115904;-82
2021/06/25 06:51:29;;;;;;;35.43;28.27;;;;;;;22.79;72.62;100282.45;124500;1096;103026;-82
2021/06/25 06:54:11;;;;;;;40.80;31.50;;;;;;;22.81;72.33;100280.46;124538;1096;115047;-81
2021/06/25 06:56:39;;;;;;;34.03;27.83;;;;;;;22.90;72.77;100289.73;124391;1095;102995;-82
2021/06/25 06:59:07;;;;;;;33.33;26.50;;;;;;;22.89;72.37;100290.72;124614;1095;116773;-80
2021/06/25 07:01:34;;;;;;;31.20;27.63;;;;;;;22.93;73.38;100284.05;124721;1096;103034;-81
2021/06/25 07:04:22;;;;;;;32.80;25.80;;;;;;;23.08;73.14;100290.09;124643;1096;103013;-81
2021/06/25 07:06:50;;;;;;;36.60;27.63;;;;;;;23.12;72.55;100294.28;124666;1096;116268;-81
2021/06/25 07:09:17;;;;;;;32.87;29.33;;;;;;;23.15;72.35;100296.80;124802;1096;103101;-81
2021/06/25 07:11:45;;;;;;;31.18;27.55;;;;;;;23.18;72.16;100295.70;124587;1096;115003;-81
2021/06/25 07:14:13;;;;;;;34.40;28.40;;;;;;;23.26;72.04;100295.93;124834;1096;103701;-81
2021/06/25 07:16:40;;;;;;;35.73;27.80;;;;;;;23.27;71.54;100299.50;124899;1096;102990;-82
2021/06/25 07:19:08;;;;;;;34.73;27.17;;;;;;;23.30;72.64;100296.52;124676;1096;115017;-81
2021/06/25 07:21:49;;;;;;;33.63;27.37;;;;;;;23.28;72.16;100299.38;124517;1096;102991;-81
2021/06/25 07:24:17;;;;;;;34.33;27.50;;;;;;;23.26;72.27;100314.95;124458;1095;114818;-81
2021/06/25 07:26:45;;;;;;;34.33;28.23;;;;;;;23.29;72.79;100305.69;124697;1096;103178;-81
2021/06/25 07:29:26;;;;;;;32.97;27.10;;;;;;;23.19;72.14;100311.87;124532;1095;115188;-82
2021/06/25 07:31:54;;;;;;;37.63;27.70;;;;;;;23.12;71.47;100317.88;124755;1096;103252;-81
2021/06/25 07:34:23;;;;;;;33.63;27.63;;;;;;;23.16;71.88;100313.96;124853;1095;102921;-82
2021/06/25 07:37:06;;;;;;;29.55;26.43;;;;;;;23.23;71.68;100319.77;124717;1096;114561;-82
2021/06/25 07:39:34;;;;;;;39.27;27.67;;;;;;;23.20;71.60;100313.61;127621;1096;102374;-80
2021/06/25 07:42:02;;;;;;;32.97;28.47;;;;;;;23.20;71.73;100310.00;127480;1096;114164;-80
2021/06/25 07:44:30;;;;;;;32.35;28.83;;;;;;;23.23;72.01;100309.74;125017;1095;103042;-81
2021/06/25 07:46:58;;;;;;;37.43;28.20;;;;;;;23.29;72.01;100300.25;124796;1096;116254;-81
2021/06/25 07:49:26;;;;;;;34.97;29.23;;;;;;;23.37;72.27;100301.34;124855;1095;103089;-81
2021/06/25 07:51:53;;;;;;;39.30;34.87;;;;;;;23.43;71.46;100309.98;124739;1095;103190;-82
2021/06/25 07:54:21;;;;;;;52.33;39.53;;;;;;;23.34;70.66;100306.18;124704;1096;116211;-81
2021/06/25 07:57:03;;;;;;;46.20;39.95;;;;;;;23.35;70.92;100311.48;124605;1096;103643;-80
2021/06/25 07:59:31;;;;;;;51.85;40.75;;;;;;;23.26;71.04;100314.95;125982;1095;116069;-80
2021/06/25 08:02:00;;;;;;;49.53;39.58;;;;;;;23.14;71.28;100330.39;124276;1095;103004;-81
2021/06/25 08:04:30;;;;;;;50.37;38.87;;;;;;;23.07;71.69;100318.23;124953;1095;102996;-79
2021/06/25 08:06:58;;;;;;;45.28;39.38;;;;;;;23.02;71.76;100325.92;124811;1096;116159;-81
2021/06/25 08:09:26;;;;;;;39.10;34.87;;;;;;;23.05;72.11;100322.94;124707;1096;103559;-80
2021/06/25 08:11:53;;;;;;;48.50;37.05;;;;;;;22.94;71.93;100314.77;124584;1095;116026;-80
2021/06/25 08:14:21;;;;;;;38.65;33.13;;;;;;;22.93;71.91;100316.64;124450;1094;103084;-80
2021/06/25 08:16:49;;;;;;;37.27;33.27;;;;;;;22.96;72.42;100315.53;124697;1095;103361;-81
2021/06/25 08:19:17;;;;;;;38.60;33.90;;;;;;;22.91;71.95;100317.75;124580;1096;114575;-81
2021/06/25 08:22:04;;;;;;;40.00;35.67;;;;;;;22.85;71.44;100319.11;124624;1096;103036;-80
2021/06/25 08:24:34;;;;;;;41.13;36.03;;;;;;;22.84;71.39;100315.50;124315;1096;116380;-81
2021/06/25 08:27:21;;;;;;;37.08;33.08;;;;;;;22.87;71.58;100307.14;127582;1095;101012;-80
2021/06/25 08:29:49;;;;;;;41.80;36.00;;;;;;;22.91;71.32;100307.73;125778;1096;115010;-80
2021/06/25 08:32:37;;;;;;;41.33;34.65;;;;;;;22.87;71.04;100314.40;124053;1096;103100;-81
2021/06/25 08:35:06;;;;;;;39.40;34.60;;;;;;;22.88;70.89;100313.42;123433;1098;116727;-80
2021/06/25 08:37:35;;;;;;;38.67;34.47;;;;;;;22.98;72.10;100313.54;124029;1099;103084;-80
2021/06/25 08:40:06;;;;;;;37.75;33.70;;;;;;;23.15;71.88;100317.66;124139;1098;103099;-80
2021/06/25 08:42:38;;;;;;;40.43;33.73;;;;;;;23.22;70.43;100316.19;123622;1098;115063;-81
2021/06/25 08:45:08;;;;;;;41.77;34.60;;;;;;;23.43;69.87;100319.02;123862;1098;103250;-81
2021/06/25 08:47:43;;;;;;;40.10;35.78;;;;;;;23.47;69.79;100320.49;127212;1096;114819;-80
2021/06/25 08:50:25;;;;;;;37.83;33.70;;;;;;;23.52;69.80;100317.38;126314;1096;103231;-81
2021/06/25 08:52:54;;;;;;;35.93;32.03;;;;;;;23.56;69.47;100318.00;125408;1096;116673;-80
2021/06/25 08:55:22;;;;;;;37.95;31.53;;;;;;;23.57;69.13;100322.45;125549;1096;102997;-79
2021/06/25 08:57:50;;;;;;;37.53;31.63;;;;;;;23.60;69.43;100314.89;124106;1096;103085;-80
2021/06/25 09:00:19;;;;;;;38.05;32.25;;;;;;;23.67;68.24;100320.68;124002;1094;116085;-80
2021/06/25 09:02:48;;;;;;;35.00;30.57;;;;;;;23.81;68.31;100322.27;127629;1095;100953;-81
2021/06/25 09:05:29;;;;;;;38.07;32.33;;;;;;;23.86;67.28;100317.31;125942;1096;116539;-80
2021/06/25 09:07:59;;;;;;;39.15;31.45;;;;;;;23.77;67.52;100318.93;124516;1096;103044;-80
2021/06/25 09:10:35;;;;;;;33.10;29.43;;;;;;;23.65;67.39;100326.25;124424;1096;103100;-80
2021/06/25 09:13:11;;;;;;;34.30;29.40;;;;;;;23.64;68.32;100324.52;124600;1096;116691;-81
2021/06/25 09:15:42;;;;;;;34.63;28.93;;;;;;;23.63;67.58;100330.97;127293;1095;101362;-81
2021/06/25 09:18:25;;;;;;;36.97;29.97;;;;;;;23.60;67.73;100339.36;126239;1096;115013;-82
2021/06/25 09:20:53;;;;;;;37.23;28.43;;;;;;;23.62;67.91;100331.06;124663;1096;103116;-81
2021/06/25 09:23:31;;;;;;;39.17;30.93;;;;;;;23.72;68.00;100334.77;124630;1096;116236;-79
2021/06/25 09:26:09;;;;;;;37.58;29.70;;;;;;;23.79;67.99;100332.39;124338;1095;103036;-81
2021/06/25 09:28:41;;;;;;;34.95;27.80;;;;;;;23.83;67.87;100332.03;127578;1095;101051;-81
2021/06/25 09:31:16;;;;;;;33.57;29.63;;;;;;;23.81;67.85;100334.00;127445;1096;114711;-81
2021/06/25 09:33:58;;;;;;;33.97;27.40;;;;;;;23.77;66.89;100327.09;127284;1096;101034;-80
2021/06/25 09:36:28;;;;;;;31.45;27.38;;;;;;;23.85;66.74;100332.75;127490;1095;116241;-80
2021/06/25 09:39:11;;;;;;;34.50;28.78;;;;;;;23.88;66.69;100327.08;127313;1096;101142;-79
2021/06/25 09:41:41;;;;;;;36.50;30.30;;;;;;;23.94;66.34;100322.12;126140;1096;114986;-82
2021/06/25 09:44:17;;;;;;;32.83;28.93;;;;;;;23.90;66.41;100323.38;124413;1094;103055;-81
2021/06/25 09:46:49;;;;;;;32.33;27.83;;;;;;;23.92;66.72;100329.56;127570;1096;101703;-79
2021/06/25 09:49:23;;;;;;;33.35;28.80;;;;;;;23.84;65.62;100317.41;127482;1096;114978;-80
2021/06/25 09:52:03;;;;;;;31.33;27.50;;;;;;;23.84;66.61;100309.25;127626;1096;101704;-80
2021/06/25 09:54:31;;;;;;;33.55;28.88;;;;;;;23.95;66.21;100313.86;127177;1096;115978;-81
2021/06/25 09:57:09;;;;;;;35.67;27.47;;;;;;;24.10;66.01;100311.69;126186;1095;103051;-80
2021/06/25 10:02:36;;;;;;;30.37;25.77;;;;;;;24.27;65.63;100304.81;124409;1096;103101;-80
2021/06/25 10:05:14;;;;;;;32.80;26.83;;;;;;;24.39;64.13;100305.59;124501;1096;115906;-81
2021/06/25 10:07:42;;;;;;;34.95;27.05;;;;;;;24.38;64.20;100299.30;124354;1095;103182;-80
2021/06/25 10:10:10;;;;;;;32.17;26.50;;;;;;;24.42;64.74;100309.91;124533;1095;102916;-81
2021/06/25 10:12:45;;;;;;;32.93;27.77;;;;;;;24.43;64.30;100308.92;124308;1095;115948;-79
2021/06/25 10:15:27;;;;;;;33.33;28.38;;;;;;;24.41;63.82;100302.77;124505;1096;103021;-78
2021/06/25 10:17:58;;;;;;;30.10;26.47;;;;;;;24.52;64.12;100299.95;124365;1096;115979;-79
2021/06/25 10:20:27;;;;;;;37.40;28.38;;;;;;;24.54;64.18;100306.14;124452;1095;103118;-80
2021/06/25 10:22:57;;;;;;;27.40;24.03;;;;;;;24.56;64.12;100309.58;127209;1096;114913;-80
2021/06/25 10:25:26;;;;;;;34.63;25.58;;;;;;;24.52;63.52;100300.84;127584;1096;101854;-78
2021/06/25 10:27:56;;;;;;;30.27;24.67;;;;;;;24.51;63.63;100309.99;125636;1095;103084;-80
2021/06/25 10:30:37;;;;;;;30.73;26.60;;;;;;;24.48;63.05;100298.50;124142;1096;114959;-79
2021/06/25 10:33:05;;;;;;;30.50;27.28;;;;;;;24.56;62.26;100292.39;127236;1096;103517;-78
2021/06/25 10:35:33;;;;;;;29.83;26.60;;;;;;;24.58;62.77;100296.71;127470;1096;116149;-78
2021/06/25 10:38:01;;;;;;;32.98;27.88;;;;;;;24.56;63.26;100295.12;127618;1096;101277;-77
2021/06/25 10:40:29;;;;;;;35.38;28.98;;;;;;;24.74;63.00;100295.38;127316;1096;101129;-78
2021/06/25 10:42:59;;;;;;;31.83;27.63;;;;;;;24.96;61.85;100303.38;127479;1095;114746;-78
2021/06/25 10:45:42;;;;;;;33.35;29.00;;;;;;;25.31;61.42;100312.13;127325;1096;101006;-77
2021/06/25 10:48:10;;;;;;;31.57;28.13;;;;;;;25.46;60.65;100308.06;127541;1095;116213;-78
2021/06/25 10:50:38;;;;;;;29.88;26.63;;;;;;;26.33;58.37;100300.13;127601;1096;101095;-79
2021/06/25 10:53:11;;;;;;;31.27;28.00;;;;;;;27.44;56.70;100297.65;124646;1096;115717;-78
2021/06/25 10:55:45;;;;;;;29.47;26.47;;;;;;;28.34;53.17;100280.45;124587;1096;103032;-78
2021/06/25 10:58:21;;;;;;;28.63;25.57;;;;;;;28.90;51.43;100280.14;124638;1095;103495;-79
2021/06/25 11:01:18;;;;;;;28.07;24.63;;;;;;;29.50;50.14;100282.84;126407;1095;116125;-78
2021/06/25 11:03:48;;;;;;;30.43;25.85;;;;;;;29.98;48.92;100282.30;124508;1096;103095;-78
2021/06/25 11:06:35;;;;;;;26.60;23.77;;;;;;;29.79;49.69;100288.90;124341;1096;116145;-78
2021/06/25 11:09:07;;;;;;;29.38;25.80;;;;;;;29.46;49.58;100299.81;127625;1096;101095;-79
2021/06/25 11:11:35;;;;;;;29.47;26.07;;;;;;;29.01;49.38;100297.17;127130;1096;116351;-79
2021/06/25 11:14:03;;;;;;;26.43;23.63;;;;;;;28.72;50.73;100302.99;124307;1096;103007;-77
2021/06/25 11:16:30;;;;;;;34.13;24.73;;;;;;;28.56;50.00;100306.45;124043;1095;103247;-78
2021/06/25 11:19:01;;;;;;;26.18;23.33;;;;;;;28.40;51.72;100298.96;127520;1095;115298;-78
2021/06/25 11:21:43;;;;;;;28.73;25.53;;;;;;;28.30;51.73;100298.22;125662;1096;102918;-77
2021/06/25 11:24:11;;;;;;;28.30;25.35;;;;;;;28.23;52.01;100286.16;127526;1096;114640;-78
2021/06/25 11:26:55;;;;;;;26.58;23.78;;;;;;;28.11;51.90;100293.75;127242;1096;101276;-78
2021/06/25 11:29:42;;;;;;;28.23;24.45;;;;;;;27.83;52.18;100291.94;127227;1095;117314;-78
2021/06/25 11:32:11;;;;;;;29.43;26.30;;;;;;;27.51;53.67;100295.16;127313;1096;101072;-78
2021/06/25 11:34:39;;;;;;;29.70;26.47;;;;;;;27.20;54.49;100293.59;127585;1095;101736;-78